Time;durP1;ratioP1;P1;durP2;ratioP2;P2;SDS_P1;SDS_P2;PMS_P1;PMS_P2;Temp;Humidity;BMP_temperature;BMP_pressure;BME280_temperature;BME280_humidity;BME280_pressure;Samples;Min_cycle;Max_cycle;Signal;HPM_P1;HPM_P2
2023/05/26 00:01:00;;;;;;;17.93;9.10;;;15.60;91.70;;;;;;5095620;27;20477;-61
2023/05/26 00:03:28;;;;;;;13.37;9.60;;;15.60;91.70;;;;;;5081541;27;20484;-61
2023/05/26 00:05:55;;;;;;;14.03;9.97;;;15.60;91.70;;;;;;5097389;27;20893;-61
2023/05/26 00:08:22;;;;;;;14.33;8.87;;;15.60;91.60;;;;;;5073424;27;21000;-61
2023/05/26 00:10:49;;;;;;;13.93;10.07;;;15.60;91.60;;;;;;5073454;28;20483;-61
2023/05/26 00:13:16;;;;;;;21.60;10.07;;;15.50;91.80;;;;;;5084852;27;20472;-61
2023/05/26 00:15:44;;;;;;;10.13;8.90;;;15.60;91.70;;;;;;5094170;27;20703;-60
2023/05/26 00:18:11;;;;;;;15.80;9.67;;;15.50;91.70;;;;;;5067932;27;20520;-61
2023/05/26 00:20:38;;;;;;;15.00;9.50;;;15.40;91.90;;;;;;5086898;27;20461;-60
2023/05/26 00:23:05;;;;;;;18.20;10.57;;;15.40;91.90;;;;;;5078538;27;20486;-60
2023/05/26 00:25:32;;;;;;;17.47;9.07;;;15.40;91.90;;;;;;5098323;27;20528;-61
2023/05/26 00:27:59;;;;;;;12.60;9.70;;;15.40;91.90;;;;;;5070684;27;20546;-60
2023/05/26 00:30:26;;;;;;;16.93;10.30;;;15.40;91.90;;;;;;5086545;27;20645;-60
2023/05/26 00:32:54;;;;;;;14.20;8.30;;;15.40;92.00;;;;;;5070647;28;20470;-60
2023/05/26 00:35:21;;;;;;;15.70;9.87;;;15.30;92.00;;;;;;5069448;28;20898;-60
2023/05/26 00:37:48;;;;;;;13.10;9.20;;;15.30;91.90;;;;;;5073381;28;20489;-60
2023/05/26 00:40:15;;;;;;;15.87;9.10;;;15.30;91.70;;;;;;5070603;28;20842;-60
2023/05/26 00:42:42;;;;;;;11.57;8.77;;;15.30;92.00;;;;;;5067507;28;21045;-60
2023/05/26 00:45:09;;;;;;;13.70;9.33;;;15.30;91.90;;;;;;5068708;28;20475;-60
2023/05/26 00:47:36;;;;;;;13.10;8.97;;;16.20;92.30;;;;;;5063986;28;20487;-60
2023/05/26 00:50:06;;;;;;;14.93;10.77;;;15.20;91.90;;;;;;5071595;27;20483;-60
2023/05/26 00:52:34;;;;;;;15.13;9.30;;;15.20;91.90;;;;;;5066171;28;20486;-60
2023/05/26 00:55:02;;;;;;;11.83;8.70;;;15.20;91.90;;;;;;5071273;28;20475;-61
2023/05/26 00:57:31;;;;;;;15.47;8.47;;;15.20;91.90;;;;;;5073387;28;20501;-61
2023/05/26 00:59:58;;;;;;;17.60;8.80;;;15.20;91.90;;;;;;5070558;28;20471;-61
2023/05/26 01:02:27;;;;;;;14.93;10.30;;;15.10;91.80;;;;;;5070934;28;20492;-61
2023/05/26 01:04:54;;;;;;;10.27;8.03;;;15.10;91.90;;;;;;5071844;28;20478;-61
2023/05/26 01:07:22;;;;;;;23.90;9.70;;;15.10;92.00;;;;;;5062357;27;20582;-61
2023/05/26 01:09:52;;;;;;;18.73;9.37;;;15.10;92.00;;;;;;5101108;27;20482;-60
2023/05/26 01:12:25;;;;;;;11.20;8.40;;;15.00;92.10;;;;;;5061312;27;20482;-61
2023/05/26 01:14:56;;;;;;;16.37;8.57;;;14.90;92.20;;;;;;5089650;27;20485;-60
2023/05/26 01:17:29;;;;;;;23.33;8.87;;;14.90;92.30;;;;;;5073098;28;20486;-60
2023/05/26 01:20:09;;;;;;;14.50;8.87;;;14.90;92.40;;;;;;5070436;28;20874;-61
2023/05/26 01:23:20;;;;;;;12.63;9.13;;;14.90;92.40;;;;;;5067628;27;20657;-60
2023/05/26 01:26:10;;;;;;;16.30;9.33;;;14.80;92.10;;;;;;5068079;28;20495;-61
2023/05/26 01:28:40;;;;;;;13.13;9.53;;;14.80;92.20;;;;;;5067720;28;20887;-61
2023/05/26 01:31:07;;;;;;;14.43;10.27;;;14.70;92.60;;;;;;5070433;28;20486;-60
2023/05/26 01:33:35;;;;;;;10.73;8.93;;;14.60;92.60;;;;;;5070786;28;20485;-60
2023/05/26 01:36:02;;;;;;;13.83;9.03;;;14.50;92.80;;;;;;5057792;27;20490;-59
2023/05/26 01:38:29;;;;;;;14.47;9.10;;;14.40;92.70;;;;;;5080679;27;21084;-60
2023/05/26 01:41:03;;;;;;;15.17;9.70;;;14.40;92.90;;;;;;5068940;28;20540;-60
2023/05/26 01:43:36;;;;;;;13.10;9.27;;;14.40;92.80;;;;;;5060399;28;20913;-60
2023/05/26 01:46:13;;;;;;;10.23;8.47;;;14.30;92.70;;;;;;5070255;28;20478;-60
2023/05/26 01:48:43;;;;;;;14.87;9.93;;;14.30;92.80;;;;;;5071456;28;20782;-60
2023/05/26 01:51:11;;;;;;;17.93;10.60;;;14.90;93.20;;;;;;5070375;28;20504;-60
2023/05/26 01:53:42;;;;;;;13.23;9.60;;;14.20;92.70;;;;;;5068338;28;21462;-60
2023/05/26 01:56:10;;;;;;;17.83;10.50;;;14.20;92.90;;;;;;5065818;28;21013;-60
2023/05/26 01:58:38;;;;;;;12.90;9.30;;;14.20;92.80;;;;;;5068853;28;20504;-60
2023/05/26 02:01:07;;;;;;;12.60;10.07;;;14.20;92.80;;;;;;5048722;27;21086;-61
2023/05/26 02:03:33;;;;;;;49.20;11.43;;;14.30;92.50;;;;;;5093023;27;20472;-61
2023/05/26 02:06:00;;;;;;;11.20;8.60;;;14.20;92.50;;;;;;5077717;27;20491;-61
2023/05/26 02:08:27;;;;;;;17.30;9.57;;;14.20;92.50;;;;;;5084895;27;20477;-61
2023/05/26 02:10:54;;;;;;;18.87;9.60;;;14.20;92.80;;;;;;5069843;28;21070;-61
2023/05/26 02:13:21;;;;;;;20.67;10.40;;;14.20;92.80;;;;;;5063759;28;20551;-61
2023/05/26 02:15:48;;;;;;;13.20;8.90;;;14.20;92.80;;;;;;5074920;27;20485;-61
2023/05/26 02:18:16;;;;;;;14.50;9.63;;;14.20;92.80;;;;;;5077192;27;20483;-61
2023/05/26 02:20:43;;;;;;;24.80;10.60;;;14.10;92.60;;;;;;5074426;27;20541;-61
2023/05/26 02:23:10;;;;;;;12.40;10.50;;;14.10;92.70;;;;;;5085739;27;20843;-60
2023/05/26 02:25:36;;;;;;;15.17;9.80;;;14.10;92.70;;;;;;5065210;27;20478;-60
2023/05/26 02:28:03;;;;;;;11.33;9.70;;;14.00;92.70;;;;;;5092942;27;20496;-60
2023/05/26 02:30:30;;;;;;;14.57;9.67;;;14.00;92.90;;;;;;5070205;28;20505;-60
2023/05/26 02:32:57;;;;;;;13.27;9.60;;;13.80;93.00;;;;;;5076934;28;20489;-60
2023/05/26 02:35:25;;;;;;;10.90;9.00;;;13.60;93.20;;;;;;5090733;27;20499;-60
2023/05/26 02:37:52;;;;;;;13.33;9.20;;;13.60;93.20;;;;;;5072402;27;20998;-61
2023/05/26 02:40:19;;;;;;;12.00;9.43;;;13.60;93.20;;;;;;5067097;28;20773;-61
2023/05/26 02:42:46;;;;;;;14.00;9.63;;;13.50;93.30;;;;;;5074417;27;20821;-61
2023/05/26 02:45:13;;;;;;;17.47;10.47;;;13.60;93.40;;;;;;5096371;27;20494;-61
2023/05/26 02:47:39;;;;;;;12.30;9.37;;;13.50;93.20;;;;;;5081223;27;20497;-61
2023/05/26 02:51:04;;;;;;;15.27;10.40;;;13.50;93.50;;;;;;5092592;27;20477;-61
2023/05/26 02:54:03;;;;;;;15.67;10.40;;;13.40;93.20;;;;;;5061789;28;20482;-61
2023/05/26 02:56:30;;;;;;;19.10;10.80;;;13.40;93.40;;;;;;5054271;28;20466;-61
2023/05/26 02:58:57;;;;;;;13.87;9.43;;;13.40;93.10;;;;;;5067920;28;20462;-60
2023/05/26 03:01:24;;;;;;;18.67;11.83;;;13.50;93.50;;;;;;5069877;28;20493;-61
2023/05/26 03:03:51;;;;;;;15.63;10.30;;;13.50;93.50;;;;;;5071298;28;21075;-60
2023/05/26 03:06:18;;;;;;;15.00;10.27;;;13.50;93.50;;;;;;5076856;27;20492;-61
2023/05/26 03:08:44;;;;;;;16.80;9.73;;;13.50;93.50;;;;;;5103138;27;20477;-61
2023/05/26 03:11:13;;;;;;;21.47;11.47;;;13.50;93.30;;;;;;5092568;27;20470;-61
2023/05/26 03:13:39;;;;;;;14.37;9.90;;;13.50;93.60;;;;;;5069377;27;22674;-61
2023/05/26 03:16:07;;;;;;;11.77;10.30;;;13.50;93.60;;;;;;5093568;27;20883;-61
2023/05/26 03:18:34;;;;;;;28.83;10.87;;;13.40;93.30;;;;;;5072059;28;21068;-60
2023/05/26 03:21:02;;;;;;;19.03;11.37;;;14.40;93.80;;;;;;5063086;27;20477;-60
2023/05/26 03:23:29;;;;;;;17.67;10.93;;;13.40;93.50;;;;;;5092485;27;20556;-60
2023/05/26 03:25:56;;;;;;;17.30;11.40;;;13.50;93.60;;;;;;5055554;28;20952;-60
2023/05/26 03:28:24;;;;;;;18.20;10.67;;;13.30;93.60;;;;;;5076052;28;20998;-60
2023/05/26 03:30:52;;;;;;;18.73;10.53;;;13.50;93.60;;;;;;5056873;27;20498;-60
2023/05/26 03:33:19;;;;;;;16.87;10.47;;;13.40;93.50;;;;;;5097533;27;20595;-60
2023/05/26 03:35:46;;;;;;;20.00;12.40;;;13.40;93.50;;;;;;5086502;27;20477;-60
2023/05/26 03:38:13;;;;;;;16.40;10.73;;;13.30;93.60;;;;;;5064470;27;20947;-60
2023/05/26 03:40:40;;;;;;;18.00;10.37;;;13.30;93.90;;;;;;5073388;27;20468;-60
2023/05/26 03:43:06;;;;;;;18.50;11.77;;;13.30;93.90;;;;;;5098411;27;21056;-60
2023/05/26 03:45:35;;;;;;;20.47;11.10;;;13.30;93.90;;;;;;5062653;28;20481;-60
2023/05/26 03:48:02;;;;;;;27.27;12.03;;;13.30;93.90;;;;;;5065413;27;20836;-60
2023/05/26 03:50:29;;;;;;;22.30;10.57;;;13.40;93.80;;;;;;5074062;27;20835;-60
2023/05/26 03:52:56;;;;;;;14.27;10.57;;;13.40;93.80;;;;;;5095879;27;20979;-60
2023/05/26 03:55:23;;;;;;;17.33;10.43;;;13.40;93.80;;;;;;5066846;28;20486;-60
2023/05/26 03:57:50;;;;;;;22.23;11.30;;;13.40;93.80;;;;;;5076457;27;20482;-60
2023/05/26 04:00:17;;;;;;;18.00;10.70;;;13.30;93.60;;;;;;5093600;27;21379;-60
2023/05/26 04:02:45;;;;;;;18.60;10.73;;;13.30;93.90;;;;;;5076868;27;20477;-60
2023/05/26 04:05:13;;;;;;;16.70;11.90;;;13.30;94.10;;;;;;5073495;27;20478;-60
2023/05/26 04:07:42;;;;;;;24.33;10.87;;;13.20;94.20;;;;;;5065601;28;20514;-60
2023/05/26 04:10:10;;;;;;;14.97;12.33;;;13.20;94.40;;;;;;5065676;27;20480;-60
2023/05/26 04:12:37;;;;;;;15.90;12.30;;;13.20;94.40;;;;;;5098297;27;20842;-60
2023/05/26 04:15:05;;;;;;;18.20;12.00;;;13.20;94.40;;;;;;5069041;28;20475;-60
2023/05/26 04:17:32;;;;;;;21.00;12.97;;;13.20;94.50;;;;;;5069467;28;20487;-60
2023/05/26 04:20:00;;;;;;;22.37;11.70;;;13.20;94.50;;;;;;5063592;28;20775;-60
2023/05/26 04:22:27;;;;;;;18.00;11.23;;;13.20;94.30;;;;;;5059853;28;21088;-60
2023/05/26 04:24:54;;;;;;;16.70;11.20;;;13.30;94.90;;;;;;5064619;28;20463;-60
2023/05/26 04:27:24;;;;;;;14.17;11.40;;;13.20;95.00;;;;;;5063209;28;20485;-60
2023/05/26 04:29:52;;;;;;;24.77;11.20;;;13.10;95.00;;;;;;5065530;28;20696;-60
2023/05/26 04:32:20;;;;;;;19.47;11.27;;;13.10;95.10;;;;;;5069004;27;21114;-60
2023/05/26 04:34:47;;;;;;;14.27;11.63;;;13.10;95.20;;;;;;5075945;27;20816;-60
2023/05/26 04:37:15;;;;;;;19.90;11.80;;;13.20;95.20;;;;;;5089144;27;20465;-60
2023/05/26 04:39:42;;;;;;;17.93;11.27;;;13.20;95.20;;;;;;5067128;27;20481;-60
2023/05/26 04:42:09;;;;;;;16.20;11.37;;;13.30;95.30;;;;;;5067234;28;20991;-60
2023/05/26 04:44:38;;;;;;;15.20;10.73;;;13.40;95.40;;;;;;5057337;28;20489;-60
2023/05/26 04:47:08;;;;;;;18.00;11.90;;;13.50;95.00;;;;;;5080308;27;21014;-60
2023/05/26 04:49:35;;;;;;;20.07;10.77;;;13.60;95.30;;;;;;5078928;27;20473;-60
2023/05/26 04:52:03;;;;;;;17.07;11.07;;;13.80;95.30;;;;;;5054594;28;20486;-60
2023/05/26 04:54:31;;;;;;;15.73;11.13;;;13.90;94.90;;;;;;5078448;27;20483;-60
2023/05/26 04:56:58;;;;;;;21.27;10.10;;;14.00;94.70;;;;;;5079817;27;20508;-60
2023/05/26 04:59:26;;;;;;;14.57;9.60;;;14.00;94.80;;;;;;5081667;27;20819;-60
2023/05/26 05:01:53;;;;;;;17.37;10.70;;;14.10;94.80;;;;;;5085349;27;20477;-60
2023/05/26 05:04:21;;;;;;;19.90;9.37;;;14.20;94.50;;;;;;5079375;27;20470;-60
2023/05/26 05:06:48;;;;;;;21.40;10.93;;;14.20;94.80;;;;;;5090201;27;20487;-60
2023/05/26 05:09:15;;;;;;;16.30;10.83;;;14.30;94.90;;;;;;5078837;27;20473;-60
2023/05/26 05:11:44;;;;;;;24.53;11.60;;;14.30;94.80;;;;;;5093215;27;20475;-60
2023/05/26 05:14:11;;;;;;;13.30;11.20;;;14.40;94.70;;;;;;5093111;27;20474;-60
2023/05/26 05:16:37;;;;;;;13.20;10.10;;;14.50;94.80;;;;;;5069748;28;20685;-59
2023/05/26 05:19:04;;;;;;;18.13;11.33;;;14.60;94.80;;;;;;5064744;28;20521;-61
2023/05/26 05:21:31;;;;;;;19.53;10.47;;;14.70;94.60;;;;;;5065554;28;20849;-61
2023/05/26 05:23:58;;;;;;;16.53;10.57;;;14.70;94.40;;;;;;5062543;27;20828;-60
2023/05/26 05:26:25;;;;;;;19.80;11.13;;;14.70;94.50;;;;;;5087381;27;20477;-60
2023/05/26 05:28:53;;;;;;;20.37;10.23;;;14.80;94.70;;;;;;5048983;28;20482;-60
2023/05/26 05:31:20;;;;;;;16.13;9.63;;;14.80;94.30;;;;;;5066628;27;20486;-60
2023/05/26 05:33:47;;;;;;;15.80;10.87;;;14.90;94.40;;;;;;5070430;28;21013;-60
2023/05/26 05:36:14;;;;;;;16.67;10.53;;;14.90;94.30;;;;;;5061376;27;21046;-60
2023/05/26 05:38:40;;;;;;;18.20;9.93;;;14.90;94.40;;;;;;5078949;27;20539;-61
2023/05/26 05:41:07;;;;;;;15.80;11.30;;;15.00;94.40;;;;;;5066213;27;20474;-60
2023/05/26 05:43:34;;;;;;;14.87;9.70;;;15.10;94.50;;;;;;5094526;27;20476;-60
2023/05/26 05:46:02;;;;;;;15.90;12.10;;;15.20;94.70;;;;;;5086012;27;20567;-60
2023/05/26 05:48:29;;;;;;;26.20;10.70;;;15.30;93.70;;;;;;5096904;27;20485;-60
2023/05/26 05:50:56;;;;;;;20.13;10.40;;;15.30;93.90;;;;;;5085157;27;20503;-60
2023/05/26 05:53:23;;;;;;;16.10;10.40;;;15.40;94.30;;;;;;5079875;27;20479;-60
2023/05/26 05:55:50;;;;;;;15.37;10.10;;;15.50;94.30;;;;;;5096129;27;20892;-60
2023/05/26 05:58:17;;;;;;;16.30;10.07;;;15.60;94.50;;;;;;5061598;28;20897;-60
2023/05/26 06:00:44;;;;;;;22.63;10.90;;;15.70;94.40;;;;;;5041750;28;20479;-60
2023/05/26 06:03:12;;;;;;;15.23;11.33;;;15.70;94.40;;;;;;5075405;27;20516;-60
2023/05/26 06:05:40;;;;;;;13.83;10.50;;;15.90;94.30;;;;;;5087381;27;20488;-60
2023/05/26 06:08:06;;;;;;;14.40;9.60;;;16.00;94.20;;;;;;5079859;27;20488;-60
2023/05/26 06:10:33;;;;;;;16.37;9.63;;;16.00;94.10;;;;;;5071058;27;21078;-60
2023/05/26 06:13:00;;;;;;;14.80;10.23;;;16.00;93.90;;;;;;5055403;27;20540;-60
2023/05/26 06:15:27;;;;;;;17.67;10.47;;;16.10;94.30;;;;;;5066420;27;20478;-60
2023/05/26 06:17:54;;;;;;;20.90;10.57;;;16.20;93.90;;;;;;5060006;28;20485;-60
2023/05/26 06:20:22;;;;;;;16.57;10.40;;;16.20;93.80;;;;;;5042047;28;20474;-60
2023/05/26 06:22:49;;;;;;;11.47;9.03;;;16.30;93.70;;;;;;5026180;27;20487;-60
2023/05/26 06:25:16;;;;;;;14.20;10.40;;;16.40;94.00;;;;;;5080226;27;20485;-60
2023/05/26 06:27:43;;;;;;;15.87;9.73;;;16.50;93.50;;;;;;5074603;27;20484;-60
2023/05/26 06:30:10;;;;;;;13.60;9.67;;;16.60;93.90;;;;;;5077829;27;20496;-60
2023/05/26 06:32:37;;;;;;;15.97;8.60;;;16.90;93.10;;;;;;5045158;27;20835;-60
2023/05/26 06:35:05;;;;;;;13.20;10.13;;;16.90;93.50;;;;;;5076249;27;20469;-60
2023/05/26 06:37:34;;;;;;;15.87;9.93;;;17.00;93.30;;;;;;5046447;27;20589;-60
2023/05/26 06:40:00;;;;;;;16.73;9.80;;;17.10;93.20;;;;;;5073110;27;20478;-61
2023/05/26 06:42:27;;;;;;;13.17;8.77;;;17.30;93.60;;;;;;5073168;27;20485;-61
2023/05/26 06:44:54;;;;;;;13.53;9.90;;;17.50;92.70;;;;;;5018654;27;20489;-61
2023/05/26 06:47:23;;;;;;;20.83;10.13;;;17.60;92.50;;;;;;5071307;27;20519;-61
2023/05/26 06:49:50;;;;;;;16.80;10.47;;;17.70;92.80;;;;;;5027616;27;20559;-61
2023/05/26 06:52:17;;;;;;;21.60;13.93;;;17.80;93.10;;;;;;5059487;27;20489;-61
2023/05/26 06:54:45;;;;;;;18.83;9.40;;;17.90;92.60;;;;;;5019334;27;20497;-61
2023/05/26 06:57:13;;;;;;;15.43;10.10;;;18.10;92.30;;;;;;5041147;27;20495;-61
2023/05/26 06:59:40;;;;;;;14.83;9.50;;;18.20;92.50;;;;;;5024668;27;21377;-61
2023/05/26 07:02:07;;;;;;;15.67;9.40;;;18.30;91.90;;;;;;5033197;27;20469;-61
2023/05/26 07:04:34;;;;;;;17.97;9.50;;;18.40;92.00;;;;;;5022972;27;20485;-61
2023/05/26 07:07:01;;;;;;;13.03;10.13;;;18.50;92.00;;;;;;5055584;27;20469;-60
2023/05/26 07:09:27;;;;;;;14.33;9.10;;;18.60;91.70;;;;;;5025766;27;20494;-61
2023/05/26 07:11:56;;;;;;;14.53;9.40;;;18.70;91.80;;;;;;5023750;27;20581;-61
2023/05/26 07:14:22;;;;;;;16.33;9.03;;;18.90;91.50;;;;;;5014729;27;20496;-61
2023/05/26 07:16:49;;;;;;;14.00;9.67;;;19.20;91.10;;;;;;5076645;27;20476;-61
2023/05/26 07:19:16;;;;;;;10.93;8.30;;;19.30;91.20;;;;;;5038570;27;21174;-61
2023/05/26 07:21:43;;;;;;;16.10;10.03;;;19.50;90.50;;;;;;5049801;27;20493;-61
2023/05/26 07:24:10;;;;;;;17.17;10.73;;;19.30;91.00;;;;;;5073418;27;20991;-61
2023/05/26 07:26:36;;;;;;;14.30;10.87;;;19.60;91.20;;;;;;5010365;27;20510;-61
2023/05/26 07:29:05;;;;;;;13.47;9.77;;;19.90;90.80;;;;;;5025881;27;21497;-61
2023/05/26 07:31:31;;;;;;;18.83;8.80;;;20.10;91.20;;;;;;5015035;27;20480;-61
2023/05/26 07:33:58;;;;;;;13.80;8.93;;;20.20;90.40;;;;;;5057490;27;20484;-61
2023/05/26 07:36:25;;;;;;;22.43;9.80;;;20.40;90.40;;;;;;5062108;27;20484;-61
2023/05/26 07:38:52;;;;;;;14.70;9.07;;;20.60;90.40;;;;;;5051755;27;20484;-61
2023/05/26 07:41:19;;;;;;;13.50;8.43;;;20.70;89.80;;;;;;5055703;27;20650;-62
2023/05/26 07:43:45;;;;;;;14.67;9.50;;;20.70;88.90;;;;;;5035214;27;20491;-62
2023/05/26 07:46:14;;;;;;;12.93;9.43;;;20.90;88.90;;;;;;5024477;27;20482;-62
2023/05/26 07:48:40;;;;;;;10.40;8.63;;;21.00;88.80;;;;;;5043088;27;20530;-61
2023/05/26 07:51:07;;;;;;;14.77;9.07;;;21.10;88.20;;;;;;5054979;27;20488;-62
2023/05/26 07:53:35;;;;;;;16.63;9.50;;;21.30;88.80;;;;;;5055484;27;20480;-62
2023/05/26 07:56:01;;;;;;;10.27;7.47;;;21.30;88.00;;;;;;5056153;27;20806;-62
2023/05/26 07:58:28;;;;;;;14.43;9.37;;;21.40;88.20;;;;;;5078279;27;20475;-61
2023/05/26 08:00:55;;;;;;;20.13;9.03;;;21.60;88.50;;;;;;5057681;27;20961;-62
2023/05/26 08:03:23;;;;;;;14.53;9.50;;;21.60;88.40;;;;;;5008695;27;20964;-62
2023/05/26 08:05:50;;;;;;;20.57;10.30;;;21.70;87.50;;;;;;5019516;27;20496;-61
2023/05/26 08:08:17;;;;;;;17.60;8.03;;;21.70;89.80;;;;;;5008686;27;20497;-61
2023/05/26 08:10:44;;;;;;;12.47;8.83;;;21.80;87.20;;;;;;5041107;27;20484;-62
2023/05/26 08:13:11;;;;;;;11.50;8.07;;;22.00;89.80;;;;;;5031982;27;21042;-61
2023/05/26 08:15:38;;;;;;;15.70;10.27;;;22.40;88.00;;;;;;5039304;27;20491;-61
2023/05/26 08:18:05;;;;;;;13.87;9.53;;;22.50;89.40;;;;;;5044311;27;20482;-61
2023/05/26 08:20:33;;;;;;;14.23;9.47;;;22.70;87.90;;;;;;5085806;27;20488;-61
2023/05/26 08:23:00;;;;;;;10.77;8.20;;;22.70;86.60;;;;;;5010476;27;20490;-62
2023/05/26 08:25:26;;;;;;;12.07;9.07;;;22.90;88.40;;;;;;5016874;27;20502;-61
2023/05/26 08:27:54;;;;;;;13.00;9.63;;;23.00;86.90;;;;;;5067122;27;20492;-61
2023/05/26 08:30:21;;;;;;;15.17;9.33;;;23.10;87.50;;;;;;5044168;27;20998;-62
2023/05/26 08:32:47;;;;;;;12.17;8.93;;;23.10;86.60;;;;;;5043297;27;20501;-62
2023/05/26 08:35:14;;;;;;;15.23;8.97;;;23.10;86.00;;;;;;5048498;27;20502;-61
2023/05/26 08:37:42;;;;;;;14.23;8.93;;;23.10;85.20;;;;;;5030385;27;20448;-61
2023/05/26 08:40:11;;;;;;;15.00;8.87;;;23.10;84.60;;;;;;5046677;27;20490;-61
2023/05/26 08:42:45;;;;;;;11.27;8.77;;;23.30;87.20;;;;;;5040596;27;20891;-62
2023/05/26 08:45:13;;;;;;;11.80;7.63;;;23.50;84.80;;;;;;5027813;27;20492;-61
2023/05/26 08:47:42;;;;;;;10.70;8.27;;;23.60;84.40;;;;;;5055805;27;20521;-61
2023/05/26 08:50:10;;;;;;;11.67;8.07;;;23.70;85.80;;;;;;5072418;27;20985;-61
2023/05/26 08:52:38;;;;;;;11.53;8.30;;;23.90;84.30;;;;;;5037044;27;20607;-61
2023/05/26 08:55:07;;;;;;;11.93;9.00;;;23.90;85.70;;;;;;5017089;27;20508;-62
2023/05/26 08:57:35;;;;;;;13.87;8.70;;;23.90;84.20;;;;;;5017235;27;20877;-61
2023/05/26 09:00:04;;;;;;;12.90;7.97;;;24.00;84.70;;;;;;5048731;28;21100;-61
2023/05/26 09:02:31;;;;;;;14.57;8.83;;;24.10;84.80;;;;;;5022692;27;21446;-62
2023/05/26 09:04:58;;;;;;;11.00;7.63;;;24.10;84.70;;;;;;5073609;27;20553;-61
2023/05/26 09:07:25;;;;;;;14.03;8.83;;;24.30;84.20;;;;;;5002156;27;20490;-62
2023/05/26 09:09:52;;;;;;;12.83;7.43;;;24.30;83.30;;;;;;5068432;27;20480;-62
2023/05/26 09:12:20;;;;;;;12.40;7.70;;;24.40;84.50;;;;;;5015954;27;20503;-62
2023/05/26 09:14:47;;;;;;;14.03;8.40;;;24.40;82.60;;;;;;5025066;27;21032;-62
2023/05/26 09:17:14;;;;;;;11.50;8.77;;;24.40;84.70;;;;;;5039406;27;20500;-62
2023/05/26 09:19:41;;;;;;;12.53;8.50;;;24.40;83.10;;;;;;5038919;27;20472;-62
2023/05/26 09:22:10;;;;;;;17.23;8.40;;;24.40;84.30;;;;;;5040945;27;20497;-62
2023/05/26 09:24:45;;;;;;;16.93;9.00;;;24.60;82.70;;;;;;5028719;27;21018;-63
2023/05/26 09:27:23;;;;;;;14.30;8.17;;;24.70;84.80;;;;;;5039256;27;20493;-62
2023/05/26 09:29:54;;;;;;;10.80;8.17;;;24.90;81.20;;;;;;5057305;27;20545;-63
2023/05/26 09:32:25;;;;;;;11.50;8.70;;;25.10;82.10;;;;;;5020438;27;20542;-62
2023/05/26 09:34:52;;;;;;;10.67;8.47;;;25.20;83.10;;;;;;5046132;27;20582;-62
2023/05/26 09:37:26;;;;;;;15.00;8.63;;;25.20;82.80;;;;;;5024934;27;20941;-62
2023/05/26 09:39:53;;;;;;;12.73;9.10;;;25.30;83.30;;;;;;5019921;27;20457;-63
2023/05/26 09:42:19;;;;;;;8.27;7.47;;;25.50;82.30;;;;;;5060526;27;20547;-62
2023/05/26 09:44:51;;;;;;;14.80;8.70;;;25.50;82.30;;;;;;5011197;27;20920;-63
2023/05/26 09:47:21;;;;;;;17.63;8.13;;;25.60;80.90;;;;;;5069344;27;20486;-63
2023/05/26 09:49:47;;;;;;;13.97;8.23;;;25.40;82.40;;;;;;5034412;27;21284;-63
2023/05/26 09:52:14;;;;;;;10.80;7.63;;;25.50;80.40;;;;;;5043804;28;20474;-63
2023/05/26 09:54:41;;;;;;;9.37;7.73;;;25.50;82.00;;;;;;5025103;27;20486;-63
2023/05/26 09:57:10;;;;;;;15.87;7.83;;;25.60;82.70;;;;;;5019406;27;20683;-63
2023/05/26 09:59:42;;;;;;;9.87;8.87;;;25.70;82.20;;;;;;5039537;28;20916;-63
2023/05/26 10:02:19;;;;;;;11.10;8.40;;;25.70;80.40;;;;;;5051830;27;20489;-63
2023/05/26 10:04:47;;;;;;;11.43;8.20;;;25.80;80.70;;;;;;5020504;27;20525;-63
2023/05/26 10:07:16;;;;;;;12.37;8.90;;;25.80;81.80;;;;;;5021387;27;20821;-63
2023/05/26 10:09:45;;;;;;;11.63;8.77;;;25.70;81.00;;;;;;5031874;27;20882;-62
2023/05/26 10:12:16;;;;;;;15.37;8.50;;;25.70;78.80;;;;;;5050205;27;20493;-62
2023/05/26 10:14:43;;;;;;;12.47;8.10;;;25.70;79.70;;;;;;5049067;28;20482;-63
2023/05/26 10:17:11;;;;;;;14.23;8.33;;;25.80;80.90;;;;;;5021709;27;20485;-63
2023/05/26 10:19:39;;;;;;;11.43;8.80;;;25.90;80.50;;;;;;5032432;27;20457;-63
2023/05/26 10:22:11;;;;;;;10.63;9.53;;;25.90;78.70;;;;;;5081058;27;20504;-63
2023/05/26 10:24:41;;;;;;;10.87;7.73;;;25.80;77.00;;;;;;5054343;27;20828;-63
2023/05/26 10:27:18;;;;;;;14.80;8.83;;;25.90;80.40;;;;;;5063487;27;20956;-63
2023/05/26 10:29:49;;;;;;;11.17;8.57;;;25.80;80.20;;;;;;5000732;27;20810;-63
2023/05/26 10:32:48;;;;;;;14.40;8.40;;;26.00;80.10;;;;;;5046406;28;20704;-63
2023/05/26 10:35:26;;;;;;;8.03;7.00;;;26.10;81.60;;;;;;5046519;27;20478;-63
2023/05/26 10:37:58;;;;;;;11.10;9.10;;;26.10;78.20;;;;;;5008784;27;20884;-63
2023/05/26 10:40:39;;;;;;;12.23;8.40;;;26.10;80.70;;;;;;5044589;27;20535;-62
2023/05/26 10:43:14;;;;;;;15.03;8.57;;;26.10;78.30;;;;;;5064911;27;20761;-63
2023/05/26 10:45:45;;;;;;;10.57;7.17;;;26.00;80.00;;;;;;5051787;27;20740;-63
2023/05/26 10:48:13;;;;;;;12.47;8.10;;;25.90;77.10;;;;;;5018845;27;20949;-63
2023/05/26 10:51:15;;;;;;;10.77;7.40;;;25.90;82.20;;;;;;5061533;27;20461;-63
2023/05/26 10:53:44;;;;;;;9.63;8.63;;;26.10;78.50;;;;;;5015576;27;20497;-64
2023/05/26 10:56:13;;;;;;;13.30;8.53;;;26.10;77.50;;;;;;5020064;27;20878;-63
2023/05/26 10:58:42;;;;;;;11.40;8.40;;;26.10;78.20;;;;;;5023056;28;20481;-63
2023/05/26 11:01:16;;;;;;;10.57;7.70;;;26.20;81.50;;;;;;5040678;27;20590;-63
2023/05/26 11:03:45;;;;;;;9.10;7.77;;;26.30;81.10;;;;;;5007157;27;20455;-63
2023/05/26 11:06:15;;;;;;;11.57;8.10;;;26.40;81.00;;;;;;5050757;27;20493;-62
2023/05/26 11:08:45;;;;;;;14.00;7.93;;;26.40;75.90;;;;;;5035714;27;20499;-62
2023/05/26 11:11:13;;;;;;;13.67;8.40;;;26.40;77.40;;;;;;5036424;27;20479;-62
2023/05/26 11:13:45;;;;;;;9.87;8.10;;;26.30;77.50;;;;;;5032244;27;20490;-64
2023/05/26 11:16:24;;;;;;;13.40;8.10;;;26.10;76.40;;;;;;5027112;28;20480;-64
2023/05/26 11:18:53;;;;;;;14.23;8.47;;;26.10;75.90;;;;;;5021732;27;20698;-64
2023/05/26 11:21:25;;;;;;;9.40;7.60;;;26.00;77.50;;;;;;5034282;27;20465;-64
2023/05/26 11:23:53;;;;;;;14.20;8.37;;;25.90;76.90;;;;;;5028326;27;20466;-64
2023/05/26 11:26:21;;;;;;;15.00;8.20;;;25.80;75.20;;;;;;5026076;27;20488;-63
2023/05/26 11:28:49;;;;;;;9.53;8.17;;;25.70;74.20;;;;;;5008821;27;20586;-63
2023/05/26 11:31:17;;;;;;;16.57;8.70;;;25.70;75.40;;;;;;5031514;28;20736;-63
2023/05/26 11:33:45;;;;;;;17.73;8.07;;;25.70;75.80;;;;;;5035925;27;20464;-62
2023/05/26 11:36:15;;;;;;;13.30;7.87;;;25.60;76.60;;;;;;5063202;27;20646;-63
2023/05/26 11:38:43;;;;;;;10.90;7.40;;;25.70;77.40;;;;;;5023741;27;20835;-63
2023/05/26 11:41:11;;;;;;;10.83;7.20;;;25.80;77.20;;;;;;5027279;27;21497;-63
2023/05/26 11:43:39;;;;;;;12.83;7.40;;;25.90;77.40;;;;;;5025626;27;20479;-63
2023/05/26 11:46:08;;;;;;;14.17;8.50;;;26.10;77.30;;;;;;5055078;27;21001;-63
2023/05/26 11:48:37;;;;;;;14.23;7.47;;;26.20;73.10;;;;;;5040631;27;20471;-64
2023/05/26 11:51:08;;;;;;;10.60;7.60;;;26.20;72.00;;;;;;5054015;27;21080;-63
2023/05/26 11:53:37;;;;;;;12.93;7.43;;;26.30;75.00;;;;;;5050244;27;21222;-64
2023/05/26 11:56:07;;;;;;;10.23;7.40;;;26.30;75.70;;;;;;5059074;27;20468;-63
2023/05/26 11:58:36;;;;;;;7.33;6.63;;;26.30;73.60;;;;;;5036323;27;20894;-64
2023/05/26 12:01:03;;;;;;;12.17;7.93;;;26.30;73.60;;;;;;5013052;27;20470;-64
2023/05/26 12:03:36;;;;;;;8.20;6.07;;;26.30;74.30;;;;;;5062077;27;20974;-64
2023/05/26 12:06:21;;;;;;;10.93;7.50;;;26.20;73.20;;;;;;5062109;27;20478;-64
2023/05/26 12:08:51;;;;;;;10.80;6.77;;;26.10;75.30;;;;;;5039915;27;20983;-63
2023/05/26 12:11:22;;;;;;;7.47;6.00;;;26.10;71.50;;;;;;5008962;27;21004;-63
2023/05/26 12:13:55;;;;;;;8.57;6.30;;;26.30;74.70;;;;;;5060087;27;20776;-62
2023/05/26 12:16:29;;;;;;;10.10;6.87;;;26.30;72.10;;;;;;5031113;27;20475;-62
2023/05/26 12:19:06;;;;;;;11.80;6.90;;;26.20;70.10;;;;;;5034391;27;20495;-62
2023/05/26 12:21:40;;;;;;;15.33;7.20;;;26.30;71.20;;;;;;5024429;27;20484;-62
2023/05/26 12:24:09;;;;;;;13.70;6.90;;;26.20;70.30;;;;;;5043424;27;20488;-62
2023/05/26 12:26:36;;;;;;;11.90;6.60;;;26.20;71.00;;;;;;5045111;27;21042;-62
2023/05/26 12:29:11;;;;;;;9.70;6.93;;;26.30;72.30;;;;;;5031270;27;20541;-63
2023/05/26 12:31:39;;;;;;;11.83;6.93;;;26.20;71.00;;;;;;5030691;27;20494;-62
2023/05/26 12:34:06;;;;;;;12.07;6.80;;;26.30;71.80;;;;;;5029631;27;20455;-62
2023/05/26 12:36:33;;;;;;;7.93;7.13;;;26.30;72.90;;;;;;5045579;28;20488;-62
2023/05/26 12:39:01;;;;;;;14.83;6.50;;;26.40;71.40;;;;;;5017050;27;20504;-62
2023/05/26 12:41:29;;;;;;;9.70;7.53;;;26.40;70.60;;;;;;5044348;27;20471;-64